ENFB/FBU METAR and TAF weather

Enter ICAO airport designator
Station Type Date Time Source
ENFB METAR 2020/02/29 02:50 UTC NOAA

ENFB 290250Z AUTO 10034KT 9999NDV BKN015/// 05/01 Q0991 W///S5


Station Type Date Time Source
ENFB Decoded METAR 2020/02/29 02:50 UTC NOAA

Oslo / Fornebu, Norway (ENFB) 59-54N 010-38E 17M
Feb 28, 2020 - 09:50 PM EST / 2020.02.29 0250 UTC
Wind: from the E (100 degrees) at 39 MPH (34 KT):0
Sky conditions: mostly cloudy
Temperature: 41 F (5 C)
Dew Point: 33 F (1 C)
Relative Humidity: 75%
Pressure (altimeter): 29.26 in. Hg (0991 hPa)
ob: ENFB 290250Z AUTO 10034KT 9999NDV BKN015/// 05/01 Q0991 W///S5
cycle: 3

Station Type Date Time Source
ENFB TAF UTC NOAA

Error!

Example: see airport list